createdAt,value
2023-03-19T00:02:20.036Z,13.00
2023-03-19T00:08:13.473Z,13.10
2023-03-19T00:14:08.344Z,13.00
2023-03-19T00:20:01.754Z,12.90
2023-03-19T00:25:55.607Z,12.90
2023-03-19T00:31:50.446Z,12.80
2023-03-19T00:37:44.103Z,12.70
2023-03-19T00:43:38.005Z,12.80
2023-03-19T00:49:32.783Z,12.80
2023-03-19T00:55:27.768Z,12.80
2023-03-19T01:01:20.761Z,12.50
2023-03-19T01:07:16.000Z,12.60
2023-03-19T01:13:09.510Z,12.70
2023-03-19T01:19:03.484Z,12.40
2023-03-19T01:24:58.370Z,12.40
2023-03-19T01:30:51.899Z,12.60
2023-03-19T01:37:03.225Z,12.30
2023-03-19T01:43:15.492Z,12.30
2023-03-19T01:49:15.051Z,12.10
2023-03-19T01:55:13.453Z,12.20
2023-03-19T02:01:18.135Z,12.20
2023-03-19T02:07:16.145Z,12.20
2023-03-19T02:13:09.883Z,12.00
2023-03-19T02:19:05.008Z,12.10
2023-03-19T02:25:03.514Z,12.10
2023-03-19T02:31:18.405Z,12.30
2023-03-19T02:37:17.918Z,12.30
2023-03-19T02:43:11.864Z,12.30
2023-03-19T02:49:06.425Z,12.20
2023-03-19T02:55:00.015Z,12.10
2023-03-19T03:00:53.463Z,12.20
2023-03-19T03:06:48.615Z,12.10
2023-03-19T03:12:41.864Z,12.10
2023-03-19T03:18:34.853Z,12.10
2023-03-19T03:24:29.377Z,12.10
2023-03-19T03:30:22.926Z,12.10
2023-03-19T03:36:16.020Z,12.00
2023-03-19T03:42:10.807Z,12.10
2023-03-19T03:48:06.778Z,12.10
2023-03-19T03:54:00.331Z,12.20
2023-03-19T03:59:54.686Z,12.20
2023-03-19T04:05:48.133Z,12.10
2023-03-19T04:11:42.902Z,12.10
2023-03-19T04:17:37.230Z,12.10
2023-03-19T04:23:30.529Z,12.00
2023-03-19T04:29:23.699Z,12.00
2023-03-19T04:35:19.001Z,12.00
2023-03-19T04:41:12.121Z,12.00
2023-03-19T04:47:12.132Z,12.00
2023-03-19T04:53:20.336Z,11.90
2023-03-19T04:59:14.918Z,11.90
2023-03-19T05:05:08.961Z,11.90
2023-03-19T05:11:03.772Z,11.90
2023-03-19T05:17:07.472Z,11.90
2023-03-19T05:23:12.153Z,11.80
2023-03-19T05:29:26.087Z,11.80
2023-03-19T05:35:31.850Z,11.80
2023-03-19T05:41:26.485Z,11.90
2023-03-19T05:47:26.996Z,11.80
2023-03-19T05:53:23.691Z,11.70
2023-03-19T05:59:32.993Z,11.80
2023-03-19T06:05:54.437Z,11.80
2023-03-19T06:11:59.515Z,11.80
2023-03-19T06:18:18.578Z,11.90
2023-03-19T06:24:14.323Z,11.90
2023-03-19T06:30:09.032Z,11.90
2023-03-19T06:36:02.204Z,12.00
2023-03-19T06:41:59.918Z,12.00
2023-03-19T06:47:54.054Z,12.00
2023-03-19T06:53:47.030Z,12.10
2023-03-19T06:59:41.789Z,12.20
2023-03-19T07:05:42.675Z,12.10
2023-03-19T07:11:36.074Z,12.30
2023-03-19T07:17:30.511Z,12.40
2023-03-19T07:23:23.771Z,12.50
2023-03-19T07:29:18.055Z,12.60
2023-03-19T07:35:14.575Z,12.70
2023-03-19T07:41:07.543Z,12.80
2023-03-19T07:47:00.652Z,12.90
2023-03-19T07:52:54.966Z,12.90
2023-03-19T07:58:48.001Z,13.00
2023-03-19T08:04:41.903Z,13.10
2023-03-19T08:10:38.479Z,13.10
2023-03-19T08:16:32.509Z,13.30
2023-03-19T08:22:25.728Z,13.30
2023-03-19T08:28:20.326Z,13.40
2023-03-19T08:34:13.733Z,13.50
2023-03-19T08:40:08.329Z,13.60
2023-03-19T08:46:02.727Z,13.60
2023-03-19T08:51:55.740Z,13.60
2023-03-19T08:57:49.144Z,13.60
2023-03-19T09:03:45.297Z,13.60
2023-03-19T09:09:38.421Z,13.50
2023-03-19T09:15:31.619Z,13.50
2023-03-19T09:21:26.127Z,13.70
2023-03-19T09:27:21.057Z,13.90
2023-03-19T09:33:14.589Z,14.00
2023-03-19T09:39:09.852Z,14.10
2023-03-19T09:45:03.071Z,14.30
2023-03-19T09:50:58.236Z,14.70
2023-03-19T09:56:52.680Z,15.10
2023-03-19T10:02:45.949Z,15.40
2023-03-19T10:09:13.019Z,15.20
2023-03-19T10:15:19.678Z,15.30
2023-03-19T10:21:17.566Z,16.80
2023-03-19T10:27:14.369Z,17.20
2023-03-19T10:33:18.639Z,16.70
2023-03-19T10:39:14.358Z,17.20
2023-03-19T10:45:18.520Z,18.20
2023-03-19T10:51:16.869Z,18.90
2023-03-19T10:57:24.545Z,20.40
2023-03-19T11:03:33.277Z,20.30
2023-03-19T11:09:34.866Z,19.60
2023-03-19T11:15:36.051Z,19.40
2023-03-19T11:21:33.345Z,19.00
2023-03-19T11:27:34.710Z,19.40
2023-03-19T11:33:48.416Z,20.20
2023-03-19T11:39:54.505Z,19.40
2023-03-19T11:45:58.816Z,18.00
2023-03-19T11:52:00.171Z,17.30
2023-03-19T11:58:09.616Z,17.70
2023-03-19T12:04:21.138Z,18.20
2023-03-19T12:10:34.874Z,18.20
2023-03-19T12:16:45.761Z,17.50
2023-03-19T12:22:57.412Z,17.00
2023-03-19T12:28:58.696Z,16.70
2023-03-19T12:34:55.434Z,16.50
2023-03-19T12:40:54.571Z,16.30
2023-03-19T12:46:53.849Z,15.90
2023-03-19T12:52:51.532Z,15.40
2023-03-19T12:58:55.878Z,15.30
2023-03-19T13:04:56.254Z,16.20
2023-03-19T13:10:49.701Z,17.00
2023-03-19T13:16:49.656Z,17.20
2023-03-19T13:22:55.962Z,17.20
2023-03-19T13:29:01.889Z,16.90
2023-03-19T13:35:15.203Z,16.60
2023-03-19T13:41:46.999Z,16.50
2023-03-19T13:47:44.901Z,16.30
2023-03-19T13:53:42.843Z,16.10
2023-03-19T13:59:36.816Z,15.60
2023-03-19T14:05:34.995Z,15.10
2023-03-19T14:11:32.589Z,14.90
2023-03-19T14:17:29.609Z,14.90
2023-03-19T14:23:39.573Z,14.80
2023-03-19T14:29:36.934Z,14.80
2023-03-19T14:35:33.229Z,15.20
2023-03-19T14:41:33.496Z,15.20
2023-03-19T14:47:41.643Z,15.20
2023-03-19T14:53:40.559Z,15.10
2023-03-19T14:59:40.730Z,15.00
2023-03-19T15:05:36.708Z,15.00
2023-03-19T15:11:48.380Z,14.90
2023-03-19T15:17:49.211Z,14.90
2023-03-19T15:23:51.993Z,14.90
2023-03-19T15:29:48.978Z,14.80
2023-03-19T15:35:46.426Z,15.00
2023-03-19T15:41:45.448Z,15.00
2023-03-19T15:47:42.112Z,15.10
2023-03-19T15:53:38.881Z,15.20
2023-03-19T15:59:32.704Z,15.20
2023-03-19T16:05:28.339Z,15.00
2023-03-19T16:11:31.036Z,15.10
2023-03-19T16:17:35.283Z,15.00
2023-03-19T16:23:32.716Z,15.20
2023-03-19T16:29:29.531Z,15.40
2023-03-19T16:35:23.245Z,15.40
2023-03-19T16:41:24.534Z,15.20
2023-03-19T16:47:19.321Z,15.00
2023-03-19T16:53:21.773Z,15.00
2023-03-19T16:59:21.000Z,15.00
2023-03-19T17:05:16.754Z,14.80
2023-03-19T17:11:19.484Z,14.70
2023-03-19T17:17:19.255Z,14.40
2023-03-19T17:23:14.596Z,14.30
2023-03-19T17:29:08.080Z,14.20
2023-03-19T17:35:01.559Z,14.10
2023-03-19T17:40:56.349Z,14.10
2023-03-19T17:46:51.890Z,14.00
2023-03-19T17:52:46.977Z,13.90
2023-03-19T17:58:41.761Z,13.90
2023-03-19T18:04:34.823Z,13.80
2023-03-19T18:10:30.344Z,13.70
2023-03-19T18:16:29.120Z,13.70
2023-03-19T18:22:22.638Z,13.60
2023-03-19T18:28:16.081Z,13.50
2023-03-19T18:34:14.803Z,13.60
2023-03-19T18:40:12.566Z,13.60
2023-03-19T18:46:13.844Z,13.50
2023-03-19T18:52:11.937Z,13.40
2023-03-19T18:58:05.772Z,13.40
2023-03-19T19:03:59.765Z,13.50
2023-03-19T19:09:54.135Z,13.40
2023-03-19T19:15:48.656Z,13.10
2023-03-19T19:21:42.051Z,12.90
2023-03-19T19:27:36.430Z,12.70
2023-03-19T19:33:34.608Z,12.40
2023-03-19T19:39:28.346Z,12.60
2023-03-19T19:45:41.615Z,12.70
2023-03-19T19:51:34.567Z,12.80
2023-03-19T19:57:28.044Z,12.50
2023-03-19T20:03:24.526Z,12.40
2023-03-19T20:09:18.016Z,12.20
2023-03-19T20:15:19.458Z,12.10
2023-03-19T20:21:15.310Z,12.00
2023-03-19T20:27:17.337Z,12.00
2023-03-19T20:33:12.856Z,12.00
2023-03-19T20:39:07.653Z,12.00
2023-03-19T20:45:01.687Z,12.00
2023-03-19T20:50:54.934Z,11.80
2023-03-19T20:56:49.787Z,11.60
2023-03-19T21:02:43.244Z,11.60
2023-03-19T21:08:38.685Z,11.40
2023-03-19T21:14:33.907Z,11.20
2023-03-19T21:20:30.541Z,11.30
2023-03-19T21:26:25.207Z,11.10
2023-03-19T21:32:20.358Z,11.10
2023-03-19T21:38:13.741Z,11.10
2023-03-19T21:44:11.728Z,11.00
2023-03-19T21:50:07.390Z,10.80
2023-03-19T21:56:02.068Z,10.90
2023-03-19T22:01:55.040Z,10.90
2023-03-19T22:07:49.788Z,10.80
2023-03-19T22:13:44.667Z,10.70
2023-03-19T22:19:38.318Z,10.70
2023-03-19T22:25:35.330Z,10.70
2023-03-19T22:31:29.390Z,10.80
2023-03-19T22:37:27.649Z,10.80
2023-03-19T22:43:28.308Z,10.90
2023-03-19T22:49:21.272Z,10.90
2023-03-19T22:55:14.815Z,10.90
2023-03-19T23:01:29.187Z,10.90
2023-03-19T23:07:22.703Z,10.90
2023-03-19T23:13:16.604Z,11.00
2023-03-19T23:19:19.649Z,10.90
2023-03-19T23:25:17.510Z,10.90
2023-03-19T23:31:12.001Z,10.90
2023-03-19T23:37:07.304Z,10.90
2023-03-19T23:43:02.624Z,11.00
2023-03-19T23:48:56.512Z,11.10
2023-03-19T23:54:51.226Z,11.00
